sensor_id;sensor_type;location;lat;lon;timestamp;P1;durP1;ratioP1;P2;durP2;ratioP2
4831;SDS011;2430;51.322;7.864;2023-08-12T00:00:29;19.33;;;13.70;;
4831;SDS011;2430;51.322;7.864;2023-08-12T00:02:56;18.70;;;13.27;;
4831;SDS011;2430;51.322;7.864;2023-08-12T00:05:22;19.67;;;12.63;;
4831;SDS011;2430;51.322;7.864;2023-08-12T00:07:49;16.53;;;12.07;;
4831;SDS011;2430;51.322;7.864;2023-08-12T00:10:15;19.13;;;12.50;;
4831;SDS011;2430;51.322;7.864;2023-08-12T00:12:42;20.20;;;13.13;;
4831;SDS011;2430;51.322;7.864;2023-08-12T00:15:10;14.70;;;10.33;;
4831;SDS011;2430;51.322;7.864;2023-08-12T00:17:37;13.80;;;10.87;;
4831;SDS011;2430;51.322;7.864;2023-08-12T00:20:06;15.17;;;11.40;;
4831;SDS011;2430;51.322;7.864;2023-08-12T00:22:35;13.00;;;9.57;;
4831;SDS011;2430;51.322;7.864;2023-08-12T00:25:02;22.23;;;17.00;;
4831;SDS011;2430;51.322;7.864;2023-08-12T00:27:28;18.90;;;16.20;;
4831;SDS011;2430;51.322;7.864;2023-08-12T00:29:55;18.80;;;15.30;;
4831;SDS011;2430;51.322;7.864;2023-08-12T00:32:23;24.67;;;16.50;;
4831;SDS011;2430;51.322;7.864;2023-08-12T00:34:49;16.87;;;12.30;;
4831;SDS011;2430;51.322;7.864;2023-08-12T00:37:15;16.77;;;12.10;;
4831;SDS011;2430;51.322;7.864;2023-08-12T00:39:42;16.97;;;12.07;;
4831;SDS011;2430;51.322;7.864;2023-08-12T00:42:08;18.53;;;12.70;;
4831;SDS011;2430;51.322;7.864;2023-08-12T00:44:34;17.70;;;12.33;;
4831;SDS011;2430;51.322;7.864;2023-08-12T00:47:00;24.83;;;13.40;;
4831;SDS011;2430;51.322;7.864;2023-08-12T00:49:28;28.40;;;14.43;;
4831;SDS011;2430;51.322;7.864;2023-08-12T00:51:55;17.50;;;13.10;;
4831;SDS011;2430;51.322;7.864;2023-08-12T00:54:21;20.73;;;13.40;;
4831;SDS011;2430;51.322;7.864;2023-08-12T00:56:48;15.93;;;12.20;;
4831;SDS011;2430;51.322;7.864;2023-08-12T00:59:14;20.03;;;12.30;;
4831;SDS011;2430;51.322;7.864;2023-08-12T01:01:42;17.80;;;11.83;;
4831;SDS011;2430;51.322;7.864;2023-08-12T01:04:09;16.97;;;12.73;;
4831;SDS011;2430;51.322;7.864;2023-08-12T01:06:37;15.80;;;12.80;;
4831;SDS011;2430;51.322;7.864;2023-08-12T01:09:03;16.90;;;12.90;;
4831;SDS011;2430;51.322;7.864;2023-08-12T01:11:32;22.40;;;12.80;;
4831;SDS011;2430;51.322;7.864;2023-08-12T01:14:02;14.47;;;11.17;;
4831;SDS011;2430;51.322;7.864;2023-08-12T01:16:32;13.43;;;12.13;;
4831;SDS011;2430;51.322;7.864;2023-08-12T01:19:00;19.47;;;13.47;;
4831;SDS011;2430;51.322;7.864;2023-08-12T01:21:28;23.63;;;17.60;;
4831;SDS011;2430;51.322;7.864;2023-08-12T01:23:57;22.13;;;16.17;;
4831;SDS011;2430;51.322;7.864;2023-08-12T01:26:23;20.80;;;15.47;;
4831;SDS011;2430;51.322;7.864;2023-08-12T01:28:49;35.37;;;15.37;;
4831;SDS011;2430;51.322;7.864;2023-08-12T01:31:18;18.37;;;14.60;;
4831;SDS011;2430;51.322;7.864;2023-08-12T01:33:49;15.57;;;13.07;;
4831;SDS011;2430;51.322;7.864;2023-08-12T01:36:18;24.17;;;17.83;;
4831;SDS011;2430;51.322;7.864;2023-08-12T01:38:45;16.93;;;14.03;;
4831;SDS011;2430;51.322;7.864;2023-08-12T01:41:14;22.00;;;15.33;;
4831;SDS011;2430;51.322;7.864;2023-08-12T01:43:41;18.60;;;15.20;;
4831;SDS011;2430;51.322;7.864;2023-08-12T01:46:07;22.23;;;17.20;;
4831;SDS011;2430;51.322;7.864;2023-08-12T01:48:34;27.63;;;16.90;;
4831;SDS011;2430;51.322;7.864;2023-08-12T01:51:00;23.10;;;18.00;;
4831;SDS011;2430;51.322;7.864;2023-08-12T01:53:26;22.67;;;18.77;;
4831;SDS011;2430;51.322;7.864;2023-08-12T01:55:52;21.27;;;18.30;;
4831;SDS011;2430;51.322;7.864;2023-08-12T01:58:20;21.27;;;17.07;;
4831;SDS011;2430;51.322;7.864;2023-08-12T02:00:46;25.90;;;17.10;;
4831;SDS011;2430;51.322;7.864;2023-08-12T02:03:13;23.80;;;17.67;;
4831;SDS011;2430;51.322;7.864;2023-08-12T02:05:39;21.03;;;17.73;;
4831;SDS011;2430;51.322;7.864;2023-08-12T02:08:06;20.37;;;17.63;;
4831;SDS011;2430;51.322;7.864;2023-08-12T02:10:32;25.60;;;20.70;;
4831;SDS011;2430;51.322;7.864;2023-08-12T02:12:58;27.70;;;20.60;;
4831;SDS011;2430;51.322;7.864;2023-08-12T02:15:26;28.27;;;20.17;;
4831;SDS011;2430;51.322;7.864;2023-08-12T02:17:52;28.17;;;20.87;;
4831;SDS011;2430;51.322;7.864;2023-08-12T02:20:19;30.43;;;22.00;;
4831;SDS011;2430;51.322;7.864;2023-08-12T02:22:45;27.63;;;22.40;;
4831;SDS011;2430;51.322;7.864;2023-08-12T02:25:11;32.17;;;23.07;;
4831;SDS011;2430;51.322;7.864;2023-08-12T02:27:38;26.40;;;21.30;;
4831;SDS011;2430;51.322;7.864;2023-08-12T02:30:04;25.70;;;20.50;;
4831;SDS011;2430;51.322;7.864;2023-08-12T02:32:32;27.90;;;22.27;;
4831;SDS011;2430;51.322;7.864;2023-08-12T02:34:59;28.33;;;21.80;;
4831;SDS011;2430;51.322;7.864;2023-08-12T02:37:25;24.63;;;21.90;;
4831;SDS011;2430;51.322;7.864;2023-08-12T02:39:51;27.73;;;22.30;;
4831;SDS011;2430;51.322;7.864;2023-08-12T02:42:17;27.73;;;22.10;;
4831;SDS011;2430;51.322;7.864;2023-08-12T02:44:44;29.30;;;21.80;;
4831;SDS011;2430;51.322;7.864;2023-08-12T02:47:10;29.60;;;21.03;;
4831;SDS011;2430;51.322;7.864;2023-08-12T02:49:37;28.23;;;22.07;;
4831;SDS011;2430;51.322;7.864;2023-08-12T02:52:04;27.30;;;22.20;;
4831;SDS011;2430;51.322;7.864;2023-08-12T02:54:30;37.30;;;25.33;;
4831;SDS011;2430;51.322;7.864;2023-08-12T02:56:57;26.23;;;21.30;;
4831;SDS011;2430;51.322;7.864;2023-08-12T02:59:23;45.63;;;22.13;;
4831;SDS011;2430;51.322;7.864;2023-08-12T03:01:50;24.67;;;17.30;;
4831;SDS011;2430;51.322;7.864;2023-08-12T03:04:17;19.90;;;16.30;;
4831;SDS011;2430;51.322;7.864;2023-08-12T03:06:45;15.00;;;12.40;;
4831;SDS011;2430;51.322;7.864;2023-08-12T03:09:11;14.00;;;12.50;;
4831;SDS011;2430;51.322;7.864;2023-08-12T03:11:37;15.07;;;12.13;;
4831;SDS011;2430;51.322;7.864;2023-08-12T03:14:03;13.13;;;11.83;;
4831;SDS011;2430;51.322;7.864;2023-08-12T03:16:30;12.07;;;10.77;;
4831;SDS011;2430;51.322;7.864;2023-08-12T03:18:56;11.33;;;9.93;;
4831;SDS011;2430;51.322;7.864;2023-08-12T03:21:22;10.73;;;9.60;;
4831;SDS011;2430;51.322;7.864;2023-08-12T03:23:50;9.80;;;8.43;;
4831;SDS011;2430;51.322;7.864;2023-08-12T03:26:16;11.23;;;9.03;;
4831;SDS011;2430;51.322;7.864;2023-08-12T03:28:42;10.77;;;9.57;;
4831;SDS011;2430;51.322;7.864;2023-08-12T03:31:09;12.33;;;9.67;;
4831;SDS011;2430;51.322;7.864;2023-08-12T03:33:35;12.93;;;8.97;;
4831;SDS011;2430;51.322;7.864;2023-08-12T03:36:01;12.67;;;8.67;;
4831;SDS011;2430;51.322;7.864;2023-08-12T03:38:28;10.60;;;9.37;;
4831;SDS011;2430;51.322;7.864;2023-08-12T03:40:55;12.33;;;10.10;;
4831;SDS011;2430;51.322;7.864;2023-08-12T03:43:22;12.27;;;10.27;;
4831;SDS011;2430;51.322;7.864;2023-08-12T03:45:48;13.30;;;9.40;;
4831;SDS011;2430;51.322;7.864;2023-08-12T03:48:14;10.40;;;9.10;;
4831;SDS011;2430;51.322;7.864;2023-08-12T03:50:41;10.83;;;9.30;;
4831;SDS011;2430;51.322;7.864;2023-08-12T03:53:08;11.53;;;9.30;;
4831;SDS011;2430;51.322;7.864;2023-08-12T03:55:34;10.13;;;8.90;;
4831;SDS011;2430;51.322;7.864;2023-08-12T03:58:02;10.00;;;8.70;;
4831;SDS011;2430;51.322;7.864;2023-08-12T04:00:28;12.07;;;8.00;;
4831;SDS011;2430;51.322;7.864;2023-08-12T04:02:55;7.83;;;7.03;;
4831;SDS011;2430;51.322;7.864;2023-08-12T04:05:21;9.03;;;7.40;;
4831;SDS011;2430;51.322;7.864;2023-08-12T04:07:47;8.90;;;7.17;;
4831;SDS011;2430;51.322;7.864;2023-08-12T04:10:13;7.33;;;6.60;;
4831;SDS011;2430;51.322;7.864;2023-08-12T04:12:40;8.03;;;6.17;;
4831;SDS011;2430;51.322;7.864;2023-08-12T04:15:08;9.57;;;6.30;;
4831;SDS011;2430;51.322;7.864;2023-08-12T04:17:35;5.87;;;5.03;;
4831;SDS011;2430;51.322;7.864;2023-08-12T04:20:01;6.23;;;5.10;;
4831;SDS011;2430;51.322;7.864;2023-08-12T04:22:30;6.33;;;4.90;;
4831;SDS011;2430;51.322;7.864;2023-08-12T04:24:57;5.50;;;5.00;;
4831;SDS011;2430;51.322;7.864;2023-08-12T04:27:23;6.17;;;4.93;;
4831;SDS011;2430;51.322;7.864;2023-08-12T04:29:49;8.33;;;5.80;;
4831;SDS011;2430;51.322;7.864;2023-08-12T04:32:17;5.83;;;5.27;;
4831;SDS011;2430;51.322;7.864;2023-08-12T04:34:44;7.23;;;5.13;;
4831;SDS011;2430;51.322;7.864;2023-08-12T04:37:10;7.23;;;5.20;;
4831;SDS011;2430;51.322;7.864;2023-08-12T04:39:36;7.83;;;5.20;;
4831;SDS011;2430;51.322;7.864;2023-08-12T04:42:03;5.57;;;5.00;;
4831;SDS011;2430;51.322;7.864;2023-08-12T04:44:29;5.27;;;3.93;;
4831;SDS011;2430;51.322;7.864;2023-08-12T04:46:55;4.97;;;4.47;;
4831;SDS011;2430;51.322;7.864;2023-08-12T04:49:23;4.47;;;3.93;;
4831;SDS011;2430;51.322;7.864;2023-08-12T04:51:51;4.20;;;3.80;;
4831;SDS011;2430;51.322;7.864;2023-08-12T04:54:17;3.63;;;3.27;;
4831;SDS011;2430;51.322;7.864;2023-08-12T04:56:43;4.63;;;3.67;;
4831;SDS011;2430;51.322;7.864;2023-08-12T04:59:10;6.93;;;4.60;;
4831;SDS011;2430;51.322;7.864;2023-08-12T05:01:36;4.10;;;3.70;;
4831;SDS011;2430;51.322;7.864;2023-08-12T05:04:03;3.77;;;3.23;;
4831;SDS011;2430;51.322;7.864;2023-08-12T05:06:31;4.90;;;3.73;;
4831;SDS011;2430;51.322;7.864;2023-08-12T05:09:00;3.63;;;3.33;;
4831;SDS011;2430;51.322;7.864;2023-08-12T05:11:27;4.67;;;4.03;;
4831;SDS011;2430;51.322;7.864;2023-08-12T05:13:54;5.70;;;4.17;;
4831;SDS011;2430;51.322;7.864;2023-08-12T05:16:20;5.83;;;4.93;;
4831;SDS011;2430;51.322;7.864;2023-08-12T05:18:46;4.20;;;3.80;;
4831;SDS011;2430;51.322;7.864;2023-08-12T05:21:13;7.97;;;4.83;;
4831;SDS011;2430;51.322;7.864;2023-08-12T05:23:40;4.77;;;4.33;;
4831;SDS011;2430;51.322;7.864;2023-08-12T05:26:06;5.60;;;4.60;;
4831;SDS011;2430;51.322;7.864;2023-08-12T05:28:33;4.67;;;4.20;;
4831;SDS011;2430;51.322;7.864;2023-08-12T05:30:59;4.60;;;4.20;;
4831;SDS011;2430;51.322;7.864;2023-08-12T05:33:25;4.60;;;3.87;;
4831;SDS011;2430;51.322;7.864;2023-08-12T05:35:52;4.63;;;4.23;;
4831;SDS011;2430;51.322;7.864;2023-08-12T05:38:18;6.23;;;4.00;;
4831;SDS011;2430;51.322;7.864;2023-08-12T05:40:46;4.33;;;3.33;;
4831;SDS011;2430;51.322;7.864;2023-08-12T05:43:12;4.50;;;4.07;;
4831;SDS011;2430;51.322;7.864;2023-08-12T05:45:38;4.90;;;3.70;;
4831;SDS011;2430;51.322;7.864;2023-08-12T05:48:05;4.00;;;3.60;;
4831;SDS011;2430;51.322;7.864;2023-08-12T05:50:31;6.43;;;3.60;;
4831;SDS011;2430;51.322;7.864;2023-08-12T05:52:57;6.80;;;3.90;;
4831;SDS011;2430;51.322;7.864;2023-08-12T05:55:23;4.47;;;3.70;;
4831;SDS011;2430;51.322;7.864;2023-08-12T05:57:51;4.10;;;3.20;;
4831;SDS011;2430;51.322;7.864;2023-08-12T06:00:17;5.10;;;3.20;;
4831;SDS011;2430;51.322;7.864;2023-08-12T06:02:44;4.83;;;3.53;;
4831;SDS011;2430;51.322;7.864;2023-08-12T06:05:10;4.53;;;3.90;;
4831;SDS011;2430;51.322;7.864;2023-08-12T06:07:36;5.30;;;3.80;;
4831;SDS011;2430;51.322;7.864;2023-08-12T06:10:03;8.90;;;3.80;;
4831;SDS011;2430;51.322;7.864;2023-08-12T06:12:29;5.63;;;4.70;;
4831;SDS011;2430;51.322;7.864;2023-08-12T06:14:56;5.10;;;4.53;;
4831;SDS011;2430;51.322;7.864;2023-08-12T06:17:23;4.50;;;4.10;;
4831;SDS011;2430;51.322;7.864;2023-08-12T06:19:49;8.27;;;3.90;;
4831;SDS011;2430;51.322;7.864;2023-08-12T06:22:15;4.73;;;3.37;;
4831;SDS011;2430;51.322;7.864;2023-08-12T06:24:42;3.80;;;3.33;;
4831;SDS011;2430;51.322;7.864;2023-08-12T06:27:08;3.40;;;3.10;;
4831;SDS011;2430;51.322;7.864;2023-08-12T06:29:34;2.70;;;2.50;;
4831;SDS011;2430;51.322;7.864;2023-08-12T06:32:02;3.50;;;2.70;;
4831;SDS011;2430;51.322;7.864;2023-08-12T06:34:28;9.83;;;3.50;;
4831;SDS011;2430;51.322;7.864;2023-08-12T06:36:54;4.27;;;3.33;;
4831;SDS011;2430;51.322;7.864;2023-08-12T06:39:20;3.87;;;2.67;;
4831;SDS011;2430;51.322;7.864;2023-08-12T06:41:47;3.87;;;2.70;;
4831;SDS011;2430;51.322;7.864;2023-08-12T06:44:13;5.00;;;2.80;;
4831;SDS011;2430;51.322;7.864;2023-08-12T06:46:39;3.23;;;2.93;;
4831;SDS011;2430;51.322;7.864;2023-08-12T06:49:07;2.73;;;2.53;;
4831;SDS011;2430;51.322;7.864;2023-08-12T06:51:33;6.40;;;2.27;;
4831;SDS011;2430;51.322;7.864;2023-08-12T06:53:59;6.00;;;3.10;;
4831;SDS011;2430;51.322;7.864;2023-08-12T06:56:25;7.20;;;3.37;;
4831;SDS011;2430;51.322;7.864;2023-08-12T06:58:51;3.77;;;2.50;;
4831;SDS011;2430;51.322;7.864;2023-08-12T07:01:18;3.43;;;2.57;;
4831;SDS011;2430;51.322;7.864;2023-08-12T07:03:45;3.00;;;2.63;;
4831;SDS011;2430;51.322;7.864;2023-08-12T07:06:12;8.20;;;2.80;;
4831;SDS011;2430;51.322;7.864;2023-08-12T07:08:39;6.30;;;2.80;;
4831;SDS011;2430;51.322;7.864;2023-08-12T07:11:05;3.57;;;3.20;;
4831;SDS011;2430;51.322;7.864;2023-08-12T07:13:31;7.03;;;3.10;;
4831;SDS011;2430;51.322;7.864;2023-08-12T07:15:58;3.93;;;3.30;;
4831;SDS011;2430;51.322;7.864;2023-08-12T07:18:24;3.50;;;3.20;;
4831;SDS011;2430;51.322;7.864;2023-08-12T07:20:51;4.60;;;3.07;;
4831;SDS011;2430;51.322;7.864;2023-08-12T07:23:19;6.73;;;3.37;;
4831;SDS011;2430;51.322;7.864;2023-08-12T07:25:45;8.03;;;3.30;;
4831;SDS011;2430;51.322;7.864;2023-08-12T07:28:11;8.80;;;3.87;;
4831;SDS011;2430;51.322;7.864;2023-08-12T07:30:38;4.20;;;3.80;;
4831;SDS011;2430;51.322;7.864;2023-08-12T07:33:04;3.90;;;3.50;;
4831;SDS011;2430;51.322;7.864;2023-08-12T07:35:30;3.90;;;3.23;;
4831;SDS011;2430;51.322;7.864;2023-08-12T07:37:57;7.03;;;4.23;;
4831;SDS011;2430;51.322;7.864;2023-08-12T07:40:24;10.10;;;3.70;;
4831;SDS011;2430;51.322;7.864;2023-08-12T07:42:51;4.23;;;3.43;;
4831;SDS011;2430;51.322;7.864;2023-08-12T07:45:17;4.80;;;3.10;;
4831;SDS011;2430;51.322;7.864;2023-08-12T07:47:43;3.83;;;2.90;;
4831;SDS011;2430;51.322;7.864;2023-08-12T07:50:09;3.53;;;3.23;;
4831;SDS011;2430;51.322;7.864;2023-08-12T07:52:36;4.30;;;3.60;;
4831;SDS011;2430;51.322;7.864;2023-08-12T07:55:02;4.20;;;3.33;;
4831;SDS011;2430;51.322;7.864;2023-08-12T07:57:30;5.00;;;3.67;;
4831;SDS011;2430;51.322;7.864;2023-08-12T07:59:56;4.10;;;3.43;;
4831;SDS011;2430;51.322;7.864;2023-08-12T08:02:22;4.27;;;3.87;;
4831;SDS011;2430;51.322;7.864;2023-08-12T08:04:48;7.10;;;3.80;;
4831;SDS011;2430;51.322;7.864;2023-08-12T08:07:15;3.97;;;3.40;;
4831;SDS011;2430;51.322;7.864;2023-08-12T08:09:41;3.50;;;3.20;;
4831;SDS011;2430;51.322;7.864;2023-08-12T08:12:08;3.13;;;2.83;;
4831;SDS011;2430;51.322;7.864;2023-08-12T08:14:36;5.70;;;3.30;;
4831;SDS011;2430;51.322;7.864;2023-08-12T08:17:02;4.83;;;4.43;;
4831;SDS011;2430;51.322;7.864;2023-08-12T08:19:28;3.27;;;2.60;;
4831;SDS011;2430;51.322;7.864;2023-08-12T08:21:56;4.47;;;2.67;;
4831;SDS011;2430;51.322;7.864;2023-08-12T08:24:23;8.73;;;2.77;;
4831;SDS011;2430;51.322;7.864;2023-08-12T08:26:49;3.27;;;2.60;;
4831;SDS011;2430;51.322;7.864;2023-08-12T08:29:15;3.73;;;2.73;;
4831;SDS011;2430;51.322;7.864;2023-08-12T08:31:43;7.03;;;3.00;;
4831;SDS011;2430;51.322;7.864;2023-08-12T08:34:09;3.10;;;2.57;;
4831;SDS011;2430;51.322;7.864;2023-08-12T08:36:35;2.83;;;2.33;;
4831;SDS011;2430;51.322;7.864;2023-08-12T08:39:02;2.73;;;2.30;;
4831;SDS011;2430;51.322;7.864;2023-08-12T08:41:28;4.60;;;3.13;;
4831;SDS011;2430;51.322;7.864;2023-08-12T08:43:56;2.83;;;2.50;;
4831;SDS011;2430;51.322;7.864;2023-08-12T08:46:25;3.00;;;2.43;;
4831;SDS011;2430;51.322;7.864;2023-08-12T08:48:53;3.20;;;2.10;;
4831;SDS011;2430;51.322;7.864;2023-08-12T08:51:20;2.13;;;1.93;;
4831;SDS011;2430;51.322;7.864;2023-08-12T08:53:46;2.50;;;2.03;;
4831;SDS011;2430;51.322;7.864;2023-08-12T08:56:13;2.33;;;2.13;;
4831;SDS011;2430;51.322;7.864;2023-08-12T08:58:39;3.97;;;2.33;;
4831;SDS011;2430;51.322;7.864;2023-08-12T09:01:06;3.83;;;2.27;;
4831;SDS011;2430;51.322;7.864;2023-08-12T09:03:32;2.63;;;2.30;;
4831;SDS011;2430;51.322;7.864;2023-08-12T09:06:00;2.13;;;1.93;;
4831;SDS011;2430;51.322;7.864;2023-08-12T09:08:28;4.47;;;1.80;;
4831;SDS011;2430;51.322;7.864;2023-08-12T09:10:55;4.87;;;2.20;;
4831;SDS011;2430;51.322;7.864;2023-08-12T09:13:23;3.47;;;1.87;;
4831;SDS011;2430;51.322;7.864;2023-08-12T09:15:49;3.90;;;2.20;;
4831;SDS011;2430;51.322;7.864;2023-08-12T09:18:15;8.73;;;2.30;;
4831;SDS011;2430;51.322;7.864;2023-08-12T09:20:41;3.00;;;1.70;;
4831;SDS011;2430;51.322;7.864;2023-08-12T09:23:09;3.77;;;2.13;;
4831;SDS011;2430;51.322;7.864;2023-08-12T09:25:37;1.83;;;1.70;;
4831;SDS011;2430;51.322;7.864;2023-08-12T09:28:07;3.43;;;1.73;;
4831;SDS011;2430;51.322;7.864;2023-08-12T09:30:35;4.80;;;1.80;;
4831;SDS011;2430;51.322;7.864;2023-08-12T09:33:01;3.10;;;1.60;;
4831;SDS011;2430;51.322;7.864;2023-08-12T09:35:32;2.87;;;1.80;;
4831;SDS011;2430;51.322;7.864;2023-08-12T09:37:58;3.43;;;1.67;;
4831;SDS011;2430;51.322;7.864;2023-08-12T09:40:26;4.50;;;1.70;;
4831;SDS011;2430;51.322;7.864;2023-08-12T09:42:52;4.10;;;2.20;;
4831;SDS011;2430;51.322;7.864;2023-08-12T09:45:18;2.40;;;2.00;;
4831;SDS011;2430;51.322;7.864;2023-08-12T09:47:45;1.60;;;1.50;;
4831;SDS011;2430;51.322;7.864;2023-08-12T09:50:12;2.37;;;1.40;;
4831;SDS011;2430;51.322;7.864;2023-08-12T09:52:39;1.70;;;1.60;;
4831;SDS011;2430;51.322;7.864;2023-08-12T09:55:06;8.03;;;1.60;;
4831;SDS011;2430;51.322;7.864;2023-08-12T09:57:34;2.23;;;1.30;;
4831;SDS011;2430;51.322;7.864;2023-08-12T10:00:02;3.20;;;1.70;;
4831;SDS011;2430;51.322;7.864;2023-08-12T10:02:36;1.47;;;1.37;;
4831;SDS011;2430;51.322;7.864;2023-08-12T10:05:03;4.27;;;1.40;;
4831;SDS011;2430;51.322;7.864;2023-08-12T10:07:30;2.33;;;1.60;;
4831;SDS011;2430;51.322;7.864;2023-08-12T10:09:57;5.53;;;1.53;;
4831;SDS011;2430;51.322;7.864;2023-08-12T10:12:23;3.10;;;1.53;;
4831;SDS011;2430;51.322;7.864;2023-08-12T10:14:51;3.03;;;1.60;;
4831;SDS011;2430;51.322;7.864;2023-08-12T10:17:17;1.40;;;1.30;;
4831;SDS011;2430;51.322;7.864;2023-08-12T10:19:44;4.37;;;1.60;;
4831;SDS011;2430;51.322;7.864;2023-08-12T10:22:10;2.70;;;1.43;;
4831;SDS011;2430;51.322;7.864;2023-08-12T10:24:36;2.40;;;1.63;;
4831;SDS011;2430;51.322;7.864;2023-08-12T10:27:04;2.13;;;1.20;;
4831;SDS011;2430;51.322;7.864;2023-08-12T10:29:31;4.90;;;1.33;;
4831;SDS011;2430;51.322;7.864;2023-08-12T10:31:58;4.00;;;1.50;;
4831;SDS011;2430;51.322;7.864;2023-08-12T10:34:25;2.00;;;1.57;;
4831;SDS011;2430;51.322;7.864;2023-08-12T10:36:53;2.13;;;1.43;;
4831;SDS011;2430;51.322;7.864;2023-08-12T10:39:21;2.60;;;1.70;;
4831;SDS011;2430;51.322;7.864;2023-08-12T10:41:50;3.43;;;1.20;;
4831;SDS011;2430;51.322;7.864;2023-08-12T10:44:19;3.83;;;1.60;;
4831;SDS011;2430;51.322;7.864;2023-08-12T10:46:49;1.80;;;1.50;;
4831;SDS011;2430;51.322;7.864;2023-08-12T10:49:18;2.43;;;1.60;;
4831;SDS011;2430;51.322;7.864;2023-08-12T10:51:45;1.47;;;1.30;;
4831;SDS011;2430;51.322;7.864;2023-08-12T10:54:16;1.30;;;1.20;;
4831;SDS011;2430;51.322;7.864;2023-08-12T11:02:13;2.30;;;1.20;;
4831;SDS011;2430;51.322;7.864;2023-08-12T11:04:43;3.93;;;1.50;;
4831;SDS011;2430;51.322;7.864;2023-08-12T11:07:15;2.00;;;1.20;;
4831;SDS011;2430;51.322;7.864;2023-08-12T11:09:42;1.93;;;1.63;;
4831;SDS011;2430;51.322;7.864;2023-08-12T11:12:08;2.57;;;1.37;;
4831;SDS011;2430;51.322;7.864;2023-08-12T11:14:46;2.97;;;1.57;;
4831;SDS011;2430;51.322;7.864;2023-08-12T11:17:13;2.17;;;1.60;;
4831;SDS011;2430;51.322;7.864;2023-08-12T11:19:39;1.57;;;1.47;;
4831;SDS011;2430;51.322;7.864;2023-08-12T11:22:07;2.63;;;1.60;;
4831;SDS011;2430;51.322;7.864;2023-08-12T11:24:34;5.13;;;1.40;;
4831;SDS011;2430;51.322;7.864;2023-08-12T11:27:02;5.17;;;1.90;;
4831;SDS011;2430;51.322;7.864;2023-08-12T11:29:28;2.47;;;1.50;;
4831;SDS011;2430;51.322;7.864;2023-08-12T11:31:55;1.43;;;1.33;;
4831;SDS011;2430;51.322;7.864;2023-08-12T11:34:21;5.53;;;1.77;;
4831;SDS011;2430;51.322;7.864;2023-08-12T11:36:48;2.87;;;1.70;;
4831;SDS011;2430;51.322;7.864;2023-08-12T11:39:16;1.97;;;1.40;;
4831;SDS011;2430;51.322;7.864;2023-08-12T11:41:42;2.57;;;1.40;;
4831;SDS011;2430;51.322;7.864;2023-08-12T11:44:11;2.73;;;1.33;;
4831;SDS011;2430;51.322;7.864;2023-08-12T11:46:37;2.70;;;1.50;;
4831;SDS011;2430;51.322;7.864;2023-08-12T11:49:03;1.40;;;1.30;;
4831;SDS011;2430;51.322;7.864;2023-08-12T11:51:30;1.50;;;1.37;;
4831;SDS011;2430;51.322;7.864;2023-08-12T11:53:56;1.50;;;1.40;;
4831;SDS011;2430;51.322;7.864;2023-08-12T11:56:24;1.70;;;1.60;;
4831;SDS011;2430;51.322;7.864;2023-08-12T11:58:51;8.93;;;1.90;;
4831;SDS011;2430;51.322;7.864;2023-08-12T12:01:18;3.73;;;2.27;;
4831;SDS011;2430;51.322;7.864;2023-08-12T12:03:44;2.40;;;2.20;;
4831;SDS011;2430;51.322;7.864;2023-08-12T12:06:12;3.97;;;2.23;;
4831;SDS011;2430;51.322;7.864;2023-08-12T12:08:38;2.80;;;2.13;;
4831;SDS011;2430;51.322;7.864;2023-08-12T12:11:05;2.13;;;2.00;;
4831;SDS011;2430;51.322;7.864;2023-08-12T12:13:33;2.50;;;2.03;;
4831;SDS011;2430;51.322;7.864;2023-08-12T12:16:00;6.13;;;1.90;;
4831;SDS011;2430;51.322;7.864;2023-08-12T12:18:27;2.93;;;2.07;;
4831;SDS011;2430;51.322;7.864;2023-08-12T12:20:54;5.20;;;1.70;;
4831;SDS011;2430;51.322;7.864;2023-08-12T12:23:20;2.73;;;1.40;;
4831;SDS011;2430;51.322;7.864;2023-08-12T12:25:47;2.03;;;1.70;;
4831;SDS011;2430;51.322;7.864;2023-08-12T12:28:13;5.30;;;2.00;;
4831;SDS011;2430;51.322;7.864;2023-08-12T12:30:41;1.70;;;1.60;;
4831;SDS011;2430;51.322;7.864;2023-08-12T12:33:07;3.50;;;1.90;;
4831;SDS011;2430;51.322;7.864;2023-08-12T12:35:34;5.33;;;1.60;;
4831;SDS011;2430;51.322;7.864;2023-08-12T12:38:01;4.00;;;1.90;;
4831;SDS011;2430;51.322;7.864;2023-08-12T12:40:27;2.10;;;1.70;;
4831;SDS011;2430;51.322;7.864;2023-08-12T12:42:54;3.37;;;1.73;;
4831;SDS011;2430;51.322;7.864;2023-08-12T12:45:20;3.70;;;1.80;;
4831;SDS011;2430;51.322;7.864;2023-08-12T12:47:48;2.33;;;1.80;;
4831;SDS011;2430;51.322;7.864;2023-08-12T12:50:37;5.80;;;1.77;;
4831;SDS011;2430;51.322;7.864;2023-08-12T12:53:03;2.47;;;1.97;;
4831;SDS011;2430;51.322;7.864;2023-08-12T12:55:30;2.63;;;2.00;;
4831;SDS011;2430;51.322;7.864;2023-08-12T12:57:56;3.30;;;2.30;;
4831;SDS011;2430;51.322;7.864;2023-08-12T13:00:22;4.83;;;2.40;;
4831;SDS011;2430;51.322;7.864;2023-08-12T13:02:50;3.30;;;2.83;;
4831;SDS011;2430;51.322;7.864;2023-08-12T13:05:17;4.13;;;2.30;;
4831;SDS011;2430;51.322;7.864;2023-08-12T13:07:43;9.60;;;1.60;;
4831;SDS011;2430;51.322;7.864;2023-08-12T13:10:09;5.37;;;3.87;;
4831;SDS011;2430;51.322;7.864;2023-08-12T13:12:36;2.07;;;1.87;;
4831;SDS011;2430;51.322;7.864;2023-08-12T13:15:02;3.63;;;1.83;;
4831;SDS011;2430;51.322;7.864;2023-08-12T13:17:28;3.53;;;3.23;;
4831;SDS011;2430;51.322;7.864;2023-08-12T13:19:56;5.70;;;2.70;;
4831;SDS011;2430;51.322;7.864;2023-08-12T13:22:22;3.60;;;2.33;;
4831;SDS011;2430;51.322;7.864;2023-08-12T13:24:49;3.73;;;2.00;;
4831;SDS011;2430;51.322;7.864;2023-08-12T13:27:15;2.90;;;2.17;;
4831;SDS011;2430;51.322;7.864;2023-08-12T13:29:42;3.53;;;3.23;;
4831;SDS011;2430;51.322;7.864;2023-08-12T13:32:08;7.70;;;6.93;;
4831;SDS011;2430;51.322;7.864;2023-08-12T13:34:34;7.83;;;2.60;;
4831;SDS011;2430;51.322;7.864;2023-08-12T13:37:02;3.80;;;2.27;;
4831;SDS011;2430;51.322;7.864;2023-08-12T13:39:28;3.60;;;2.50;;
4831;SDS011;2430;51.322;7.864;2023-08-12T13:41:55;11.30;;;7.47;;
4831;SDS011;2430;51.322;7.864;2023-08-12T13:44:21;4.60;;;3.10;;
4831;SDS011;2430;51.322;7.864;2023-08-12T13:46:48;2.73;;;2.50;;
4831;SDS011;2430;51.322;7.864;2023-08-12T13:49:14;3.50;;;2.93;;
4831;SDS011;2430;51.322;7.864;2023-08-12T13:51:40;7.90;;;4.30;;
4831;SDS011;2430;51.322;7.864;2023-08-12T13:54:08;7.20;;;3.27;;
4831;SDS011;2430;51.322;7.864;2023-08-12T13:56:34;6.97;;;3.63;;
4831;SDS011;2430;51.322;7.864;2023-08-12T13:59:00;4.10;;;3.23;;
4831;SDS011;2430;51.322;7.864;2023-08-12T14:01:27;4.60;;;3.10;;
4831;SDS011;2430;51.322;7.864;2023-08-12T14:03:53;8.13;;;4.10;;
4831;SDS011;2430;51.322;7.864;2023-08-12T14:06:19;18.67;;;13.97;;
4831;SDS011;2430;51.322;7.864;2023-08-12T14:08:46;5.63;;;4.87;;
4831;SDS011;2430;51.322;7.864;2023-08-12T14:11:13;10.43;;;6.00;;
4831;SDS011;2430;51.322;7.864;2023-08-12T14:13:40;5.87;;;3.50;;
4831;SDS011;2430;51.322;7.864;2023-08-12T14:16:12;5.80;;;5.20;;
4831;SDS011;2430;51.322;7.864;2023-08-12T14:18:38;4.57;;;3.53;;
4831;SDS011;2430;51.322;7.864;2023-08-12T14:21:04;7.43;;;2.30;;
4831;SDS011;2430;51.322;7.864;2023-08-12T14:23:31;4.17;;;2.87;;
4831;SDS011;2430;51.322;7.864;2023-08-12T14:25:57;6.87;;;2.80;;
4831;SDS011;2430;51.322;7.864;2023-08-12T14:28:25;8.93;;;5.83;;
4831;SDS011;2430;51.322;7.864;2023-08-12T14:30:51;10.47;;;6.10;;
4831;SDS011;2430;51.322;7.864;2023-08-12T14:33:17;6.07;;;2.97;;
4831;SDS011;2430;51.322;7.864;2023-08-12T14:35:43;11.83;;;2.30;;
4831;SDS011;2430;51.322;7.864;2023-08-12T14:38:10;5.53;;;2.20;;
4831;SDS011;2430;51.322;7.864;2023-08-12T14:40:37;4.23;;;2.17;;
4831;SDS011;2430;51.322;7.864;2023-08-12T14:43:04;6.60;;;2.30;;
4831;SDS011;2430;51.322;7.864;2023-08-12T14:45:31;6.53;;;2.77;;
4831;SDS011;2430;51.322;7.864;2023-08-12T14:47:58;23.93;;;7.07;;
4831;SDS011;2430;51.322;7.864;2023-08-12T14:50:24;4.43;;;2.10;;
4831;SDS011;2430;51.322;7.864;2023-08-12T14:52:50;2.80;;;1.20;;
4831;SDS011;2430;51.322;7.864;2023-08-12T14:55:17;2.10;;;1.23;;
4831;SDS011;2430;51.322;7.864;2023-08-12T14:57:43;4.23;;;1.93;;
4831;SDS011;2430;51.322;7.864;2023-08-12T15:00:10;2.10;;;1.90;;
4831;SDS011;2430;51.322;7.864;2023-08-12T15:02:38;2.40;;;2.10;;
4831;SDS011;2430;51.322;7.864;2023-08-12T15:05:04;4.23;;;2.30;;
4831;SDS011;2430;51.322;7.864;2023-08-12T15:07:30;2.10;;;1.90;;
4831;SDS011;2430;51.322;7.864;2023-08-12T15:09:57;4.10;;;2.40;;